Aviation Digital Data Service (ADDS)

Output produced by METARs form (1110 UTC 13 December 2017)
found at http://www.aviationweather.gov/adds/metars/
 
FVCZ 130900Z 24008KT CAVOK 36/19 Q1013
FVHA 131000Z 02007KT 270V080 9999 SCT015 BKN300 24/17 Q1019 NOSIG
TAF COR FVHA 130400Z 1306/1412 35009KT 9999 SCT010 BKN080 
     BECMG 1308/1310 SCT020 BKN080 
     PROB30 
     TEMPO 1312/1318 8000 -TSRA FEW025CB SCT030 BKN080 
     BECMG 1320/1322 04010KT 9999 FEW030CB BKN080 
     FM132300 CAVOK 
     BECMG 1406/1408 SCT010 BKN080
       
FVWN 130900Z 31001KT 9999 FEW030 SCT300 28/19 Q1016
FVBU 131000Z 23007KT 180V270 9999 BKN030TCU SCT090 23/17 Q1019 TEMPO 8000 TSRA
TAF FVBU 130400Z 1306/1412 34007KT 9999 SCT030 BKN300 
     PROB40 
     TEMPO 1310/1316 9000 -TSRA FEW030CB SCT035 BKN090 
     BECMG 1318/1320 CAVOK 
     BECMG 1400/1408 SCT030
       
FVKB 130700Z 02003KT 9999 FEW030 BKN090 28/22 Q1014
FVMV 130600Z 34010KT CAVOK 26/18 Q1017 NOSIG
FVFA 131000Z 01003KT 290V060 9999 FEW030CB SCT090 25/21 Q1015 RERA NOSIG
TAF FVFA 130400Z 1306/1412 33008KT CAVOK 
     BECMG 1307/1309 SCT035 
     BECMG 1310/1312 FEW040CB SCT045 
     PROB30 
     TEMPO 1311/1318 8000 -TSRA BKN080 
     BECMG 1320/1322 CAVOK 
     BECMG 1407/1409 SCT035 SCT090